Time;durP1;ratioP1;P1;durP2;ratioP2;P2;SDS_P1;SDS_P2;PMS_P1;PMS_P2;Temp;Humidity;BMP_temperature;BMP_pressure;BME280_temperature;BME280_humidity;BME280_pressure;Samples;Min_cycle;Max_cycle;Signal;HPM_P1;HPM_P2
2024/02/02 00:01:46;;;;;;;11.43;6.80;;;;;;;7.32;97.29;99695.59;4057300;29;21037;-89
2024/02/02 00:03:53;;;;;;;9.10;6.30;;;;;;;7.29;95.63;99697.41;4093412;28;20200;-88
2024/02/02 00:05:56;;;;;;;8.68;7.00;;;;;;;7.25;95.54;99698.41;4063277;29;20261;-87
2024/02/02 00:08:00;;;;;;;9.88;6.95;;;;;;;7.21;96.25;99695.03;4076556;29;20712;-88
2024/02/02 00:10:04;;;;;;;9.85;6.70;;;;;;;7.19;96.42;99698.59;4072176;29;20202;-87
2024/02/02 00:12:11;;;;;;;8.77;5.90;;;;;;;7.18;95.72;99705.50;4089605;28;20585;-87
2024/02/02 00:14:14;;;;;;;8.98;6.55;;;;;;;7.15;96.10;99702.16;4076286;29;20317;-87
2024/02/02 00:16:17;;;;;;;8.63;6.20;;;;;;;7.12;96.11;99713.44;4078090;29;20214;-87
2024/02/02 00:18:21;;;;;;;8.23;6.60;;;;;;;7.12;96.71;99702.25;4080723;29;20220;-87
2024/02/02 00:20:24;;;;;;;7.63;5.82;;;;;;;7.13;95.54;99697.00;4074300;29;20217;-87
2024/02/02 00:22:27;;;;;;;10.73;6.82;;;;;;;7.12;95.61;99694.44;4069176;29;20298;-87
2024/02/02 00:24:32;;;;;;;9.18;6.43;;;;;;;7.09;96.12;99687.59;4057961;29;20245;-87
2024/02/02 00:26:36;;;;;;;11.50;6.75;;;;;;;7.09;95.06;99687.59;4075037;29;20730;-87
2024/02/02 00:28:39;;;;;;;9.20;6.63;;;;;;;7.08;96.06;99682.47;4064767;29;20213;-87
2024/02/02 00:30:42;;;;;;;10.00;6.03;;;;;;;7.09;96.29;99684.16;4076322;29;20212;-88
2024/02/02 00:32:45;;;;;;;11.50;6.30;;;;;;;7.09;95.53;99682.41;4078943;29;20636;-87
2024/02/02 00:34:48;;;;;;;12.75;6.20;;;;;;;7.10;95.07;99678.09;4077185;29;20332;-88
2024/02/02 00:36:52;;;;;;;10.90;6.10;;;;;;;7.08;95.74;99679.88;4076837;29;20213;-87
2024/02/02 00:38:55;;;;;;;8.27;6.30;;;;;;;7.03;95.52;99682.59;4068620;29;20205;-87
2024/02/02 00:41:00;;;;;;;9.93;7.00;;;;;;;7.03;96.88;99675.72;4079671;29;20216;-87
2024/02/02 00:43:03;;;;;;;11.05;7.07;;;;;;;7.01;97.25;99677.53;4082124;29;20659;-87
2024/02/02 00:45:07;;;;;;;9.38;6.15;;;;;;;7.01;97.04;99677.53;4074173;29;20244;-87
2024/02/02 00:47:10;;;;;;;10.10;6.30;;;;;;;7.00;97.18;99670.63;4058984;29;20214;-87
2024/02/02 00:49:13;;;;;;;10.27;5.97;;;;;;;6.97;96.70;99670.72;4069715;29;20724;-87
2024/02/02 00:51:16;;;;;;;12.43;6.68;;;;;;;6.96;95.61;99674.19;4063826;29;20239;-87
2024/02/02 00:53:20;;;;;;;10.32;6.13;;;;;;;6.92;96.33;99670.84;4075677;29;20223;-88
2024/02/02 00:55:24;;;;;;;9.18;6.30;;;;;;;6.89;95.66;99677.88;4060583;29;20251;-86
2024/02/02 00:57:28;;;;;;;9.27;6.40;;;;;;;6.82;95.77;99674.56;4089113;28;20271;-87
2024/02/02 00:59:31;;;;;;;9.77;6.55;;;;;;;6.81;95.78;99675.50;4090554;28;20235;-87
2024/02/02 01:01:35;;;;;;;7.88;6.38;;;;;;;6.78;95.03;99669.53;4091702;28;20209;-87
2024/02/02 01:03:40;;;;;;;12.90;7.57;;;;;;;6.72;95.36;99672.28;4089426;28;20209;-87
2024/02/02 01:05:44;;;;;;;67.18;9.18;;;;;;;6.63;94.50;99663.03;4087215;28;20228;-87
2024/02/02 01:07:47;;;;;;;14.43;6.75;;;;;;;6.58;95.31;99666.63;4073942;29;20222;-87
2024/02/02 01:09:50;;;;;;;22.05;7.68;;;;;;;6.53;95.64;99665.91;4060667;29;20357;-87
2024/02/02 01:11:54;;;;;;;13.27;7.90;;;;;;;6.51;95.62;99661.66;4062696;29;20223;-87
2024/02/02 01:13:59;;;;;;;24.23;7.50;;;;;;;6.46;96.09;99659.19;4078252;29;20263;-87
2024/02/02 01:16:03;;;;;;;19.73;7.75;;;;;;;6.43;96.34;99655.84;4072476;29;20210;-87
2024/02/02 01:18:07;;;;;;;20.88;7.10;;;;;;;6.38;96.50;99652.53;4064631;29;20210;-87
2024/02/02 01:20:13;;;;;;;16.75;5.95;;;;;;;6.35;96.75;99656.03;4052802;29;20209;-87
2024/02/02 01:22:16;;;;;;;13.85;6.30;;;;;;;6.34;96.30;99651.75;4075481;29;20204;-87
2024/02/02 01:24:20;;;;;;;13.23;8.18;;;;;;;6.33;96.58;99654.38;4071284;29;20216;-87
2024/02/02 01:26:23;;;;;;;12.25;6.22;;;;;;;6.29;96.12;99658.81;4072051;29;20239;-87
2024/02/02 01:28:26;;;;;;;10.10;6.22;;;;;;;6.28;96.17;99662.28;4074960;29;20240;-87
2024/02/02 01:30:32;;;;;;;9.88;7.15;;;;;;;6.28;96.37;99659.69;4073715;29;20234;-88
2024/02/02 01:32:34;;;;;;;11.35;6.28;;;;;;;6.27;96.62;99659.72;4059307;29;20312;-87
2024/02/02 01:34:38;;;;;;;8.15;5.97;;;;;;;6.26;96.63;99664.06;4073847;29;20225;-87
2024/02/02 01:36:41;;;;;;;10.18;6.32;;;;;;;6.25;96.42;99666.69;4056740;29;20736;-87
2024/02/02 01:38:50;;;;;;;18.95;6.10;;;;;;;6.23;96.39;99660.72;4059529;29;20198;-88
2024/02/02 01:40:53;;;;;;;22.85;6.15;;;;;;;6.21;96.41;99665.09;4073139;29;20216;-87
2024/02/02 01:42:57;;;;;;;12.00;6.43;;;;;;;6.20;96.06;99661.63;4076879;29;20216;-87
2024/02/02 01:45:00;;;;;;;13.82;5.93;;;;;;;6.16;95.70;99652.25;4074588;29;20593;-87
2024/02/02 01:47:06;;;;;;;25.05;7.13;;;;;;;6.16;95.92;99656.56;4058297;29;20799;-88
2024/02/02 01:49:09;;;;;;;35.83;7.10;;;;;;;6.13;96.05;99654.06;4075401;29;20209;-88
2024/02/02 01:51:13;;;;;;;22.30;6.10;;;;;;;6.08;96.29;99655.09;4059445;29;20235;-89
2024/02/02 01:53:16;;;;;;;22.02;5.75;;;;;;;6.07;96.39;99659.38;4074466;29;20668;-87
2024/02/02 01:55:20;;;;;;;22.48;5.80;;;;;;;6.05;96.08;99647.41;4067201;29;20262;-88
2024/02/02 01:57:23;;;;;;;21.00;5.97;;;;;;;6.02;96.58;99650.91;4084165;28;20216;-88
2024/02/02 01:59:26;;;;;;;15.05;5.20;;;;;;;6.02;96.32;99648.31;4077179;29;20890;-88
2024/02/02 02:01:29;;;;;;;17.58;5.70;;;;;;;5.99;96.74;99647.53;4061569;29;20215;-87
2024/02/02 02:03:33;;;;;;;13.60;4.68;;;;;;;5.93;96.03;99651.13;4061647;29;20204;-87
2024/02/02 02:05:37;;;;;;;34.35;7.20;;;;;;;5.91;96.44;99650.31;4087711;28;20708;-87
2024/02/02 02:07:44;;;;;;;20.20;5.55;;;;;;;5.88;95.90;99649.53;4078632;29;20670;-87
2024/02/02 02:09:47;;;;;;;11.88;4.78;;;;;;;5.83;95.81;99647.09;4088959;28;20209;-87
2024/02/02 02:11:52;;;;;;;15.85;5.38;;;;;;;5.78;95.76;99641.16;4072110;29;20651;-87
2024/02/02 02:13:55;;;;;;;22.63;5.25;;;;;;;5.77;96.18;99638.59;4075431;29;20211;-87
2024/02/02 02:15:58;;;;;;;39.38;6.32;;;;;;;5.76;96.43;99640.34;4070818;29;20227;-88
2024/02/02 02:18:01;;;;;;;11.15;4.65;;;;;;;5.74;96.01;99634.38;4074553;29;20200;-87
2024/02/02 02:20:09;;;;;;;10.00;5.57;;;;;;;5.74;96.06;99636.09;4067077;29;20240;-87
2024/02/02 02:22:14;;;;;;;12.32;5.50;;;;;;;5.76;96.43;99644.69;4080160;29;20203;-87
2024/02/02 02:24:17;;;;;;;16.83;5.38;;;;;;;5.78;96.66;99635.13;4059111;29;20241;-87
2024/02/02 02:26:21;;;;;;;20.00;6.28;;;;;;;5.78;96.50;99632.56;4080433;29;20236;-87
2024/02/02 02:28:24;;;;;;;18.98;6.22;;;;;;;5.74;96.35;99642.13;4078747;29;20206;-87
2024/02/02 02:30:28;;;;;;;12.68;6.43;;;;;;;5.74;96.44;99636.97;4060221;29;24680;-87
2024/02/02 02:32:31;;;;;;;25.92;6.32;;;;;;;5.80;96.56;99643.69;4073047;29;20213;-87
2024/02/02 02:34:34;;;;;;;18.63;5.93;;;;;;;5.82;96.30;99639.34;4079180;29;20211;-87
2024/02/02 02:36:38;;;;;;;23.90;5.93;;;;;;;5.79;95.84;99640.28;4063613;29;20229;-87
2024/02/02 02:38:44;;;;;;;14.13;6.10;;;;;;;5.78;96.58;99637.72;4072817;29;20215;-87
2024/02/02 02:40:46;;;;;;;13.40;6.30;;;;;;;5.79;96.32;99650.63;4070750;29;20209;-87
2024/02/02 02:42:50;;;;;;;20.92;6.18;;;;;;;5.80;96.69;99646.28;4077581;29;20223;-87
2024/02/02 02:44:53;;;;;;;30.92;8.15;;;;;;;5.80;96.41;99630.75;4076917;29;20206;-87
2024/02/02 02:46:56;;;;;;;31.23;6.50;;;;;;;5.77;95.98;99625.66;4077835;29;20303;-87
2024/02/02 02:48:59;;;;;;;12.80;5.28;;;;;;;5.72;96.07;99619.72;4056377;29;20297;-87
2024/02/02 02:51:03;;;;;;;12.50;5.20;;;;;;;5.71;95.98;99620.59;4062882;29;20207;-86
2024/02/02 02:53:06;;;;;;;11.55;6.18;;;;;;;5.72;96.26;99617.13;4061867;29;20206;-87
2024/02/02 02:55:11;;;;;;;9.85;5.80;;;;;;;5.73;96.23;99619.69;4075412;29;20211;-87
2024/02/02 02:57:14;;;;;;;10.07;5.40;;;;;;;5.74;96.86;99623.16;4062576;29;20207;-87
2024/02/02 02:59:18;;;;;;;8.98;7.05;;;;;;;5.73;96.30;99624.88;4060484;29;20712;-87
2024/02/02 03:01:20;;;;;;;8.05;5.80;;;;;;;5.75;96.08;99623.13;4073439;29;20275;-87
2024/02/02 03:03:23;;;;;;;9.30;5.65;;;;;;;5.78;96.61;99624.78;4078299;29;20268;-87
2024/02/02 03:05:28;;;;;;;8.93;5.75;;;;;;;5.79;96.46;99631.66;4074408;29;20312;-87
2024/02/02 03:07:30;;;;;;;9.60;6.85;;;;;;;5.79;96.84;99629.09;4077559;29;20306;-87
2024/02/02 03:09:33;;;;;;;11.63;5.95;;;;;;;5.85;96.85;99626.31;4074328;29;20210;-87
2024/02/02 03:11:37;;;;;;;9.07;6.28;;;;;;;5.82;96.52;99627.25;4061552;29;20631;-87
2024/02/02 03:13:41;;;;;;;10.65;6.78;;;;;;;5.83;96.49;99620.34;4063310;29;20211;-87
2024/02/02 03:15:44;;;;;;;9.05;6.55;;;;;;;5.84;96.51;99614.28;4069724;29;20312;-87
2024/02/02 03:17:48;;;;;;;18.73;7.10;;;;;;;5.83;96.31;99617.75;4055770;29;20213;-87
2024/02/02 03:19:52;;;;;;;10.82;6.60;;;;;;;5.83;96.38;99617.75;4068374;29;20213;-87
2024/02/02 03:21:55;;;;;;;20.80;7.03;;;;;;;5.81;96.21;99617.78;4079583;29;20210;-87
2024/02/02 03:23:58;;;;;;;29.10;7.00;;;;;;;5.77;96.32;99620.47;4077885;29;20688;-87
2024/02/02 03:26:02;;;;;;;13.13;6.80;;;;;;;5.75;96.26;99628.28;4052407;29;20322;-87
2024/02/02 03:28:06;;;;;;;17.95;6.95;;;;;;;5.71;96.63;99621.47;4078209;29;20212;-88
2024/02/02 03:30:10;;;;;;;20.27;7.60;;;;;;;5.70;96.28;99619.75;4071630;29;20209;-87
2024/02/02 03:32:14;;;;;;;15.57;6.55;;;;;;;5.70;96.15;99618.94;4076998;29;20205;-87
2024/02/02 03:34:17;;;;;;;14.25;6.22;;;;;;;5.67;96.39;99612.06;4059816;29;20215;-87
2024/02/02 03:36:20;;;;;;;10.60;6.10;;;;;;;5.65;95.84;99613.00;4061631;29;20237;-87
2024/02/02 03:38:24;;;;;;;13.05;7.18;;;;;;;5.63;95.84;99614.78;4076703;29;20244;-87
2024/02/02 03:40:27;;;;;;;14.80;6.80;;;;;;;5.63;96.47;99617.38;4079303;29;20308;-87
2024/02/02 03:42:30;;;;;;;18.42;6.60;;;;;;;5.60;96.32;99617.44;4060785;29;20218;-87
2024/02/02 03:44:34;;;;;;;12.07;5.82;;;;;;;5.58;96.23;99614.03;4062346;29;20212;-87
2024/02/02 03:46:38;;;;;;;10.20;5.97;;;;;;;5.58;96.70;99608.88;4074516;29;20251;-87
2024/02/02 03:48:41;;;;;;;10.73;6.10;;;;;;;5.58;96.33;99616.63;4091039;28;20210;-87
2024/02/02 03:50:44;;;;;;;13.35;6.18;;;;;;;5.59;96.78;99610.56;4077746;29;20204;-87
2024/02/02 03:52:50;;;;;;;15.80;7.18;;;;;;;5.60;96.39;99612.25;4080798;29;20221;-87
2024/02/02 03:54:54;;;;;;;15.40;6.85;;;;;;;5.60;96.07;99614.00;4074681;29;20206;-87
2024/02/02 03:56:58;;;;;;;12.27;6.65;;;;;;;5.57;96.49;99620.09;4075945;29;20249;-87
2024/02/02 03:59:01;;;;;;;11.45;7.18;;;;;;;5.60;96.97;99614.84;4076075;29;20240;-87
2024/02/02 04:01:06;;;;;;;21.20;6.55;;;;;;;5.61;96.71;99609.63;4076672;29;20624;-86
2024/02/02 04:03:09;;;;;;;11.35;6.63;;;;;;;5.60;96.39;99619.19;4061306;29;20763;-87
2024/02/02 04:05:11;;;;;;;9.48;6.47;;;;;;;5.59;96.79;99626.06;4075368;29;20264;-87
2024/02/02 04:07:15;;;;;;;12.52;5.80;;;;;;;5.62;97.07;99628.59;4072570;29;20304;-87
2024/02/02 04:09:18;;;;;;;12.75;6.40;;;;;;;5.66;97.24;99635.41;4059786;29;20298;-87
2024/02/02 04:11:21;;;;;;;10.38;6.30;;;;;;;5.65;96.63;99634.56;4077590;29;20217;-87
2024/02/02 04:13:25;;;;;;;12.43;6.35;;;;;;;5.64;97.26;99635.44;4073078;29;20237;-88
2024/02/02 04:15:28;;;;;;;10.85;6.68;;;;;;;5.62;96.60;99631.19;4073332;29;20219;-87
2024/02/02 04:17:35;;;;;;;12.27;6.85;;;;;;;5.64;97.20;99624.25;4075673;29;20239;-87
2024/02/02 04:19:39;;;;;;;8.15;5.90;;;;;;;5.65;97.05;99633.69;4075221;29;20311;-87
2024/02/02 04:21:42;;;;;;;8.50;6.05;;;;;;;5.69;97.05;99630.16;4057226;29;20220;-87
2024/02/02 04:23:45;;;;;;;11.43;7.13;;;;;;;5.72;96.99;99632.66;4089222;28;20714;-87
2024/02/02 04:25:49;;;;;;;9.27;6.60;;;;;;;5.73;97.37;99632.63;4077360;28;20781;-87
2024/02/02 04:27:52;;;;;;;11.50;7.45;;;;;;;5.75;97.19;99637.81;4056838;29;20212;-87
2024/02/02 04:29:55;;;;;;;10.85;7.13;;;;;;;5.77;97.47;99630.84;4066624;29;20717;-86
2024/02/02 04:31:58;;;;;;;9.65;6.35;;;;;;;5.81;97.58;99637.66;4071200;29;20261;-87
2024/02/02 04:34:03;;;;;;;11.45;7.38;;;;;;;5.83;97.04;99638.44;4073515;29;20209;-87
2024/02/02 04:36:07;;;;;;;13.10;7.35;;;;;;;5.80;96.77;99647.16;4068903;29;20216;-87
2024/02/02 04:38:10;;;;;;;11.45;6.95;;;;;;;5.84;96.66;99638.41;4075491;29;20763;-86
2024/02/02 04:40:16;;;;;;;12.45;6.05;;;;;;;5.84;96.65;99651.34;4077426;29;20206;-87
2024/02/02 04:42:19;;;;;;;12.48;6.68;;;;;;;5.85;96.79;99639.25;4073619;29;20220;-86
2024/02/02 04:44:22;;;;;;;10.15;6.50;;;;;;;5.88;96.69;99640.06;4060681;29;20215;-87
2024/02/02 04:46:25;;;;;;;10.95;6.20;;;;;;;5.89;96.66;99635.72;4070034;29;20206;-87
2024/02/02 04:48:28;;;;;;;9.18;6.55;;;;;;;5.89;96.52;99644.31;4056293;29;20797;-87
2024/02/02 04:50:34;;;;;;;8.30;5.75;;;;;;;5.89;96.73;99646.06;4072623;29;20305;-87
2024/02/02 04:52:38;;;;;;;9.82;6.13;;;;;;;5.88;96.64;99645.22;4080278;29;20225;-87
2024/02/02 04:54:41;;;;;;;13.00;6.57;;;;;;;5.87;96.79;99647.84;4061715;29;20271;-87
2024/02/02 04:56:45;;;;;;;8.32;6.10;;;;;;;5.91;96.53;99654.63;4060431;29;20361;-86
2024/02/02 04:58:51;;;;;;;9.00;5.30;;;;;;;5.92;96.31;99653.75;4069623;29;20247;-86
2024/02/02 05:00:54;;;;;;;9.60;6.10;;;;;;;5.92;96.55;99644.25;4076640;29;20215;-87
2024/02/02 05:02:58;;;;;;;7.30;5.22;;;;;;;5.94;96.08;99649.38;4061386;29;20690;-87
2024/02/02 05:05:01;;;;;;;9.95;6.65;;;;;;;5.93;96.45;99645.94;4074253;29;20198;-87
2024/02/02 05:07:06;;;;;;;10.07;5.93;;;;;;;5.96;96.79;99655.38;4075106;29;20672;-87
2024/02/02 05:09:09;;;;;;;7.80;5.32;;;;;;;5.97;96.69;99665.72;4078001;28;20239;-87
2024/02/02 05:11:13;;;;;;;12.20;6.60;;;;;;;5.98;96.62;99658.78;4076594;29;20195;-87
2024/02/02 05:13:16;;;;;;;9.75;5.82;;;;;;;5.98;96.07;99662.22;4078052;29;20217;-87
2024/02/02 05:15:19;;;;;;;7.97;5.45;;;;;;;5.95;96.24;99656.28;4059434;29;20262;-87
2024/02/02 05:17:23;;;;;;;8.43;5.68;;;;;;;5.96;96.02;99664.00;4076426;29;21000;-87
2024/02/02 05:19:26;;;;;;;9.65;6.20;;;;;;;5.95;96.64;99664.03;4058130;29;20217;-87
2024/02/02 05:21:29;;;;;;;11.18;6.38;;;;;;;5.97;96.57;99664.84;4061949;29;20209;-87
2024/02/02 05:23:36;;;;;;;10.30;6.50;;;;;;;5.97;96.74;99668.31;4079084;29;20207;-87
2024/02/02 05:25:49;;;;;;;8.25;6.20;;;;;;;5.99;96.42;99684.63;4075812;29;20269;-88
2024/02/02 05:27:52;;;;;;;9.88;5.85;;;;;;;5.96;95.85;99679.53;4075901;29;20266;-87
2024/02/02 05:29:55;;;;;;;10.00;6.25;;;;;;;5.97;96.18;99694.19;4061867;29;20600;-87
2024/02/02 05:31:58;;;;;;;8.07;5.68;;;;;;;6.01;96.28;99697.53;4059305;29;20223;-87
2024/02/02 05:34:01;;;;;;;10.15;6.75;;;;;;;6.02;96.54;99701.84;4072282;29;20206;-87
2024/02/02 05:36:04;;;;;;;9.65;5.95;;;;;;;6.00;96.06;99701.00;4061295;29;20206;-87
2024/02/02 05:38:07;;;;;;;8.13;5.78;;;;;;;5.93;95.56;99713.25;4062039;29;20307;-87
2024/02/02 05:40:12;;;;;;;9.13;5.35;;;;;;;5.95;97.18;99705.47;4054080;29;20211;-87
2024/02/02 05:42:15;;;;;;;10.68;6.28;;;;;;;5.96;97.20;99702.00;4085490;28;20244;-87
2024/02/02 05:44:19;;;;;;;10.85;6.25;;;;;;;5.95;97.35;99710.63;4059794;29;20207;-87
2024/02/02 05:46:22;;;;;;;9.10;5.70;;;;;;;5.95;96.79;99710.63;4082832;28;20628;-87
2024/02/02 05:48:25;;;;;;;12.00;6.43;;;;;;;5.97;96.91;99714.03;4074207;29;20218;-87
2024/02/02 05:50:29;;;;;;;10.70;6.93;;;;;;;5.98;97.17;99714.00;4076890;29;20215;-87
2024/02/02 05:52:32;;;;;;;8.10;5.63;;;;;;;6.02;96.59;99712.19;4077051;29;20588;-87
2024/02/02 05:54:35;;;;;;;10.73;6.00;;;;;;;6.01;96.51;99720.84;4079858;29;20229;-88
2024/02/02 05:56:40;;;;;;;11.15;6.60;;;;;;;5.99;97.04;99713.13;4060809;29;20300;-87
2024/02/02 05:58:43;;;;;;;11.15;6.60;;;;;;;6.00;97.03;99706.19;4077536;29;20222;-88
2024/02/02 06:00:45;;;;;;;11.05;7.00;;;;;;;6.00;97.12;99707.06;4072464;29;20690;-87
2024/02/02 06:02:49;;;;;;;12.35;6.70;;;;;;;6.00;97.16;99696.69;4075034;29;20206;-87
2024/02/02 06:04:52;;;;;;;11.35;6.57;;;;;;;6.00;97.19;99691.53;4050295;29;20220;-88
2024/02/02 06:06:55;;;;;;;11.13;7.30;;;;;;;6.00;97.10;99690.66;4070014;29;20220;-88
2024/02/02 06:08:59;;;;;;;10.93;6.05;;;;;;;5.99;97.24;99699.31;4062162;29;20208;-89
2024/02/02 06:11:03;;;;;;;13.50;7.15;;;;;;;6.00;96.99;99701.00;4077359;28;20229;-89
2024/02/02 06:13:08;;;;;;;16.30;7.30;;;;;;;6.00;96.98;99691.53;4057882;29;20815;-88
2024/02/02 06:15:12;;;;;;;14.25;7.55;;;;;;;6.00;97.49;99690.66;4080379;28;20198;-89
2024/02/02 06:17:15;;;;;;;10.48;6.55;;;;;;;6.02;97.37;99689.72;4072120;29;20213;-89
2024/02/02 06:19:18;;;;;;;10.07;6.75;;;;;;;6.05;97.23;99692.25;4071367;29;20226;-88
2024/02/02 06:21:20;;;;;;;24.63;13.93;;;;;;;6.05;97.36;99691.41;4058737;29;20223;-89
2024/02/02 06:23:24;;;;;;;14.85;8.68;;;;;;;6.04;97.44;99692.28;4078483;29;20233;-90
2024/02/02 06:25:29;;;;;;;11.75;7.45;;;;;;;6.06;97.54;99704.31;4077791;29;20213;-88
2024/02/02 06:27:31;;;;;;;13.40;7.40;;;;;;;6.09;97.27;99706.84;4070950;29;20821;-89
2024/02/02 06:29:36;;;;;;;13.10;7.00;;;;;;;6.10;97.82;99713.69;4071490;29;20223;-89
2024/02/02 06:31:39;;;;;;;11.77;7.70;;;;;;;6.15;97.55;99717.03;4070377;29;20216;-87
2024/02/02 06:33:43;;;;;;;11.55;7.80;;;;;;;6.14;97.13;99736.03;4053869;29;20255;-88
2024/02/02 06:35:46;;;;;;;18.98;12.48;;;;;;;6.17;97.32;99728.19;4076254;29;20264;-89
2024/02/02 06:37:50;;;;;;;11.90;8.45;;;;;;;6.17;97.38;99725.63;4061808;29;20250;-88
2024/02/02 06:39:54;;;;;;;14.25;9.05;;;;;;;6.17;97.49;99734.22;4074598;29;20253;-88
2024/02/02 06:41:58;;;;;;;11.30;9.07;;;;;;;6.18;97.84;99737.69;4057086;29;20237;-89
2024/02/02 06:44:00;;;;;;;14.63;9.57;;;;;;;6.21;98.07;99738.44;4053986;29;20272;-89
2024/02/02 06:46:05;;;;;;;16.60;8.80;;;;;;;6.22;98.23;99734.97;4054675;29;20219;-90
2024/02/02 06:48:10;;;;;;;12.73;7.50;;;;;;;6.22;98.61;99737.56;4069560;29;20212;-88
2024/02/02 06:50:14;;;;;;;11.15;7.15;;;;;;;6.24;98.00;99751.31;4071111;29;20215;-88
2024/02/02 06:52:17;;;;;;;11.45;7.03;;;;;;;6.27;97.95;99751.25;4064390;29;20210;-89
2024/02/02 06:54:20;;;;;;;27.92;17.05;;;;;;;6.29;97.63;99749.47;4065452;29;20213;-88
2024/02/02 06:56:36;;;;;;;13.60;10.63;;;;;;;6.27;97.34;99750.38;4069119;29;20208;-88
2024/02/02 06:58:42;;;;;;;13.25;9.50;;;;;;;6.27;97.54;99753.84;4055421;29;20289;-86
2024/02/02 07:00:44;;;;;;;12.55;9.13;;;;;;;6.27;98.42;99753.84;4084540;28;20310;-87
2024/02/02 07:02:49;;;;;;;11.23;7.68;;;;;;;6.29;98.34;99757.22;4078659;29;20206;-87
2024/02/02 07:04:53;;;;;;;13.10;8.30;;;;;;;6.32;98.07;99749.38;4081800;29;20243;-86
2024/02/02 07:06:56;;;;;;;10.98;7.95;;;;;;;6.32;98.13;99746.78;4067302;29;20224;-87
2024/02/02 07:09:02;;;;;;;11.65;8.32;;;;;;;6.35;97.88;99749.31;4070816;29;20659;-87
2024/02/02 07:11:47;;;;;;;11.68;7.35;;;;;;;6.37;96.89;99751.84;4078212;29;20664;-87
2024/02/02 07:13:51;;;;;;;9.82;7.43;;;;;;;6.36;97.88;99755.34;4072820;29;20239;-87
2024/02/02 07:15:55;;;;;;;12.00;8.30;;;;;;;6.37;98.16;99755.28;4061144;29;20215;-87
2024/02/02 07:18:00;;;;;;;11.82;8.73;;;;;;;6.38;98.08;99750.97;4065330;29;20225;-87
2024/02/02 07:20:09;;;;;;;12.65;8.75;;;;;;;6.38;97.90;99757.00;4076655;29;20210;-87
2024/02/02 07:22:25;;;;;;;14.10;9.05;;;;;;;6.42;98.36;99757.75;4088935;28;20215;-87
2024/02/02 07:24:28;;;;;;;16.02;9.05;;;;;;;6.42;98.11;99758.63;4079656;29;20221;-87
2024/02/02 07:26:32;;;;;;;14.63;9.57;;;;;;;6.44;98.17;99766.38;4091061;28;20240;-87
2024/02/02 07:28:37;;;;;;;14.90;9.50;;;;;;;6.45;98.25;99766.34;4078857;29;20307;-87
2024/02/02 07:30:55;;;;;;;12.50;8.25;;;;;;;6.46;97.67;99768.03;4056616;29;20224;-87
2024/02/02 07:32:59;;;;;;;12.90;8.15;;;;;;;6.47;98.33;99777.50;4078387;29;20221;-87
2024/02/02 07:35:04;;;;;;;11.60;8.35;;;;;;;6.48;98.00;99768.84;4053676;29;20240;-86
2024/02/02 07:37:09;;;;;;;13.32;8.35;;;;;;;6.48;98.80;99766.25;4070725;29;20211;-87
2024/02/02 07:39:22;;;;;;;14.00;8.73;;;;;;;6.49;98.47;99760.16;4054281;29;20328;-87
2024/02/02 07:41:26;;;;;;;14.82;7.97;;;;;;;6.49;97.60;99744.63;4075360;29;20221;-87
2024/02/02 07:43:32;;;;;;;16.95;9.32;;;;;;;6.52;98.24;99754.91;4062505;29;20310;-86
2024/02/02 07:45:36;;;;;;;15.65;9.35;;;;;;;6.53;98.39;99742.81;4085888;28;20206;-87
2024/02/02 07:47:39;;;;;;;14.70;10.88;;;;;;;6.54;98.18;99732.41;4088394;28;20639;-87
2024/02/02 07:49:44;;;;;;;18.20;12.80;;;;;;;6.53;98.66;99725.53;4071743;29;20228;-86
2024/02/02 07:51:47;;;;;;;18.40;12.73;;;;;;;6.55;98.28;99722.88;4059110;29;20213;-87
2024/02/02 07:53:51;;;;;;;16.30;9.93;;;;;;;6.57;97.70;99717.63;4056046;29;20243;-85
2024/02/02 07:55:55;;;;;;;15.35;9.25;;;;;;;6.62;97.83;99722.69;4060573;29;20726;-87
2024/02/02 07:57:58;;;;;;;16.23;11.30;;;;;;;6.67;98.52;99720.81;4072240;29;20215;-88
2024/02/02 08:00:07;;;;;;;23.48;15.80;;;;;;;6.72;98.94;99721.53;4071112;29;20347;-88
2024/02/02 08:02:14;;;;;;;24.35;18.00;;;;;;;6.77;99.06;99730.06;4073541;29;20206;-88
2024/02/02 08:04:17;;;;;;;17.42;12.20;;;;;;;6.80;99.38;99722.19;4056155;29;20263;-88
2024/02/02 08:06:22;;;;;;;19.80;12.48;;;;;;;6.85;98.77;99728.94;4062216;29;20243;-88
2024/02/02 08:08:24;;;;;;;23.75;16.23;;;;;;;6.89;99.71;99732.31;4061133;29;20214;-87
2024/02/02 08:10:27;;;;;;;20.88;16.75;;;;;;;6.88;98.84;99744.41;4070055;29;20646;-87
2024/02/02 08:12:30;;;;;;;25.50;17.00;;;;;;;6.92;99.54;99746.03;4056204;29;20274;-87
2024/02/02 08:14:35;;;;;;;24.08;11.80;;;;;;;6.97;98.88;99741.56;4076049;29;20213;-87
2024/02/02 08:16:38;;;;;;;15.30;11.20;;;;;;;7.01;99.48;99735.41;4075240;29;20218;-87
2024/02/02 08:18:42;;;;;;;15.60;10.70;;;;;;;7.03;99.04;99731.03;4070350;29;20233;-87
2024/02/02 08:20:46;;;;;;;14.82;10.13;;;;;;;7.01;98.89;99717.25;4076188;29;20202;-87
2024/02/02 08:22:50;;;;;;;13.43;9.02;;;;;;;7.05;100.00;99721.44;4063169;29;20219;-87
2024/02/02 08:24:54;;;;;;;16.70;9.00;;;;;;;7.08;98.88;99726.56;4058649;29;20240;-87
2024/02/02 08:26:57;;;;;;;14.13;8.85;;;;;;;7.08;98.55;99721.38;4072066;29;20214;-87
2024/02/02 08:29:02;;;;;;;16.05;11.60;;;;;;;7.08;98.96;99726.56;4074206;29;20266;-87
2024/02/02 08:31:05;;;;;;;15.32;9.45;;;;;;;7.10;99.15;99720.44;4078108;29;20206;-86
2024/02/02 08:33:08;;;;;;;14.35;9.63;;;;;;;7.12;99.29;99730.78;4078714;29;20213;-87
2024/02/02 08:35:11;;;;;;;15.40;8.90;;;;;;;7.13;98.91;99735.06;4070962;29;20310;-87
2024/02/02 08:37:14;;;;;;;13.30;8.80;;;;;;;7.11;98.37;99737.72;4053945;29;20207;-87
2024/02/02 08:39:19;;;;;;;14.90;8.38;;;;;;;7.12;98.74;99739.38;4072629;29;20257;-87
2024/02/02 08:41:22;;;;;;;11.55;8.68;;;;;;;7.14;99.03;99737.63;4073017;29;20215;-87
2024/02/02 08:43:26;;;;;;;14.32;8.80;;;;;;;7.15;98.27;99741.91;4072444;29;20339;-87
2024/02/02 08:46:09;;;;;;;12.00;8.55;;;;;;;7.18;97.98;99728.84;4072216;29;20610;-87
2024/02/02 08:48:21;;;;;;;13.57;9.57;;;;;;;7.20;98.49;99721.88;4065362;29;20210;-87
2024/02/02 08:50:25;;;;;;;14.43;10.40;;;;;;;7.22;98.90;99721.84;4076862;29;20205;-87
2024/02/02 08:52:31;;;;;;;17.27;10.13;;;;;;;7.20;98.77;99732.25;4071352;29;20225;-87
2024/02/02 08:54:44;;;;;;;16.35;10.57;;;;;;;7.20;98.15;99737.44;4073426;29;20218;-87
2024/02/02 08:56:53;;;;;;;18.08;9.55;;;;;;;7.21;98.11;99733.94;4062607;29;20206;-87
2024/02/02 08:58:57;;;;;;;19.73;9.88;;;;;;;7.23;98.53;99716.59;4071536;29;20730;-87
2024/02/02 09:01:02;;;;;;;22.05;12.70;;;;;;;7.25;99.39;99712.22;4076023;29;20265;-87
2024/02/02 09:03:12;;;;;;;31.52;13.80;;;;;;;7.30;99.41;99725.91;4073482;29;20684;-87
2024/02/02 09:05:20;;;;;;;23.05;13.13;;;;;;;7.32;98.17;99739.69;4058419;29;20237;-87
2024/02/02 09:07:23;;;;;;;21.95;12.60;;;;;;;7.30;99.23;99743.22;4075085;29;20253;-87
2024/02/02 09:09:26;;;;;;;18.45;11.63;;;;;;;7.28;97.65;99738.06;4059168;29;20249;-87
2024/02/02 09:11:31;;;;;;;15.23;11.02;;;;;;;7.29;99.10;99732.00;4071449;29;21184;-87
2024/02/02 09:13:35;;;;;;;25.75;17.13;;;;;;;7.33;98.48;99738.78;4067361;29;20218;-87
2024/02/02 09:15:38;;;;;;;30.13;17.45;;;;;;;7.34;99.88;99730.09;4052616;29;20211;-87
2024/02/02 09:17:42;;;;;;;26.23;15.85;;;;;;;7.34;98.67;99722.31;4055529;29;20575;-87
2024/02/02 09:19:46;;;;;;;22.08;15.90;;;;;;;7.37;99.07;99713.63;4053931;29;20282;-87
2024/02/02 09:21:48;;;;;;;21.50;13.18;;;;;;;7.42;99.67;99719.50;4069399;29;20206;-87
2024/02/02 09:23:52;;;;;;;17.58;12.13;;;;;;;7.45;99.81;99720.25;4077655;29;20212;-86
2024/02/02 09:25:55;;;;;;;14.27;10.45;;;;;;;7.50;98.95;99721.81;4075286;29;20205;-85
2024/02/02 09:28:00;;;;;;;14.38;10.45;;;;;;;7.56;99.10;99736.34;4066953;29;20202;-85
2024/02/02 09:30:06;;;;;;;16.80;11.70;;;;;;;7.60;99.19;99737.97;4067175;29;20685;-85
2024/02/02 09:32:09;;;;;;;18.10;12.48;;;;;;;7.56;99.32;99745.00;4060209;29;20275;-85
2024/02/02 09:34:18;;;;;;;16.17;11.43;;;;;;;7.53;98.70;99750.28;4074710;29;20265;-85
2024/02/02 09:36:25;;;;;;;23.65;14.40;;;;;;;7.52;98.28;99758.13;4073757;29;20210;-85
2024/02/02 09:38:29;;;;;;;24.42;15.77;;;;;;;7.55;99.66;99760.63;4074698;29;20210;-85
2024/02/02 09:41:15;;;;;;;25.83;18.08;;;;;;;7.58;100.00;99756.19;4060788;29;20874;-85
2024/02/02 09:43:23;;;;;;;26.23;14.45;;;;;;;7.66;99.28;99761.16;4073322;29;20202;-86
2024/02/02 09:45:40;;;;;;;17.57;11.70;;;;;;;7.69;98.97;99750.66;4065802;29;20238;-85
2024/02/02 09:48:01;;;;;;;20.00;11.70;;;;;;;7.73;99.20;99742.75;4055713;29;20628;-85